createdAt,value
2022-09-21T00:03:29.941Z,0
2022-09-21T00:10:09.941Z,0
2022-09-21T00:15:33.193Z,0
2022-09-21T00:20:55.371Z,0
2022-09-21T00:26:17.955Z,0
2022-09-21T00:31:41.915Z,0
2022-09-21T00:37:04.435Z,0
2022-09-21T00:42:26.692Z,0
2022-09-21T00:47:49.071Z,0
2022-09-21T00:53:32.228Z,0
2022-09-21T00:58:57.977Z,0
2022-09-21T01:04:20.439Z,0
2022-09-21T01:09:43.166Z,0
2022-09-21T01:15:22.117Z,0
2022-09-21T01:20:45.471Z,0
2022-09-21T01:26:07.959Z,0
2022-09-21T01:31:40.031Z,0
2022-09-21T01:37:03.527Z,0
2022-09-21T01:42:28.752Z,0
2022-09-21T01:47:51.004Z,0
2022-09-21T01:53:22.592Z,0
2022-09-21T01:58:44.929Z,0
2022-09-21T02:04:07.468Z,0
2022-09-21T02:14:40.882Z,0
2022-09-21T02:20:03.218Z,0
2022-09-21T02:25:43.249Z,0
2022-09-21T02:31:05.980Z,0
2022-09-21T02:36:28.864Z,0
2022-09-21T02:41:51.335Z,0
2022-09-21T02:47:13.726Z,0
2022-09-21T02:52:36.130Z,0
2022-09-21T02:58:01.312Z,0
2022-09-21T03:03:23.679Z,0
2022-09-21T03:09:31.425Z,0
2022-09-21T03:14:54.051Z,0
2022-09-21T03:20:38.572Z,0
2022-09-21T03:26:06.473Z,0
2022-09-21T03:31:29.044Z,0
2022-09-21T03:36:51.787Z,0
2022-09-21T03:42:14.227Z,0
2022-09-21T03:47:36.899Z,0
2022-09-21T03:52:59.384Z,0
2022-09-21T03:58:27.117Z,0
2022-09-21T04:03:49.815Z,0
2022-09-21T04:09:12.261Z,0
2022-09-21T04:14:37.508Z,0
2022-09-21T04:20:00.436Z,0
2022-09-21T04:25:22.982Z,0
2022-09-21T04:30:45.544Z,0
2022-09-21T04:36:08.274Z,0
2022-09-21T04:41:35.827Z,0
2022-09-21T04:46:58.349Z,0
2022-09-21T04:52:21.780Z,0
2022-09-21T04:57:51.477Z,0
2022-09-21T05:03:13.705Z,0
2022-09-21T05:08:36.527Z,0
2022-09-21T05:14:11.001Z,0
2022-09-21T05:19:34.308Z,0.1
2022-09-21T05:24:56.897Z,0.1
2022-09-21T05:30:19.642Z,0.1
2022-09-21T05:35:42.672Z,0.1
2022-09-21T05:41:05.276Z,0.1
2022-09-21T05:46:27.833Z,0.2
2022-09-21T05:51:54.003Z,0.2
2022-09-21T05:57:17.621Z,0.3
2022-09-21T06:41:01.401Z,0.4
2022-09-21T06:46:24.195Z,0.5
2022-09-21T06:51:55.613Z,0.4
2022-09-21T06:57:18.201Z,0.3
2022-09-21T07:02:40.955Z,0.3
2022-09-21T07:08:03.895Z,0.3
2022-09-21T07:13:28.027Z,0.5
2022-09-21T07:18:53.625Z,0.6
2022-09-21T07:24:27.181Z,0.8
2022-09-21T07:29:58.798Z,0.8
2022-09-21T07:35:21.578Z,1.1
2022-09-21T07:40:44.319Z,1.2
2022-09-21T07:46:11.057Z,1.3
2022-09-21T07:51:33.673Z,1.4
2022-09-21T07:56:56.516Z,1.5
2022-09-21T08:02:20.215Z,1.7
2022-09-21T08:07:43.409Z,1.5
2022-09-21T08:13:08.714Z,1.3
2022-09-21T08:18:32.334Z,1.3
2022-09-21T08:23:56.193Z,4
2022-09-21T08:29:19.638Z,6.3
2022-09-21T08:34:43.154Z,2.7
2022-09-21T08:40:07.795Z,6.1
2022-09-21T08:45:31.629Z,5.8
2022-09-21T08:50:57.175Z,4.1
2022-09-21T08:56:22.185Z,5.5
2022-09-21T09:01:45.106Z,4.9
2022-09-21T09:07:29.961Z,5
2022-09-21T09:17:56.895Z,4.4
2022-09-21T09:23:23.015Z,4.5
2022-09-21T09:28:48.138Z,4.4
2022-09-21T09:34:15.826Z,5
2022-09-21T09:39:41.455Z,5.2
2022-09-21T09:50:31.915Z,5.9
2022-09-21T09:55:55.277Z,6
2022-09-21T10:01:18.596Z,6
2022-09-21T10:06:46.619Z,6.2
2022-09-21T10:12:10.519Z,5.9
2022-09-21T10:17:36.614Z,5.9
2022-09-21T10:23:06.577Z,6.2
2022-09-21T10:28:40.926Z,6.2
2022-09-21T10:34:19.439Z,6.1
2022-09-21T10:39:42.431Z,5.9
2022-09-21T10:45:05.099Z,5.7
2022-09-21T10:50:27.330Z,6.4
2022-09-21T10:56:04.700Z,5.9
2022-09-21T11:01:38.699Z,2.7
2022-09-21T11:07:02.576Z,6.7
2022-09-21T11:12:29.356Z,6.5
2022-09-21T11:17:52.260Z,6.5
2022-09-21T11:23:44.475Z,6.8
2022-09-21T11:29:07.353Z,4.3
2022-09-21T11:34:28.155Z,1.4
2022-09-21T11:39:53.099Z,8
2022-09-21T11:45:17.863Z,2.5
2022-09-21T11:50:56.147Z,6.8
2022-09-21T12:01:45.896Z,6.5
2022-09-21T12:07:23.537Z,6.6
2022-09-21T12:23:35.520Z,6.4
2022-09-21T12:28:57.943Z,5.5
2022-09-21T12:34:20.577Z,4.3
2022-09-21T12:39:44.912Z,6.6
2022-09-21T12:45:10.790Z,6.8
2022-09-21T12:50:33.236Z,6
2022-09-21T12:56:09.764Z,5.5
2022-09-21T13:01:33.579Z,5.2
2022-09-21T13:06:57.025Z,5
2022-09-21T13:12:25.024Z,5.2
2022-09-21T13:17:48.306Z,4.6
2022-09-21T13:23:10.881Z,5.2
2022-09-21T13:28:42.896Z,4.6
2022-09-21T13:34:05.886Z,4.2
2022-09-21T13:39:27.463Z,2.9
2022-09-21T13:44:50.699Z,3
2022-09-21T13:50:15.035Z,4.1
2022-09-21T13:55:37.360Z,3.9
2022-09-21T14:06:23.395Z,3.9
2022-09-21T14:16:54.371Z,0.8
2022-09-21T14:22:16.589Z,3.9
2022-09-21T14:27:44.845Z,3.6
2022-09-21T14:33:11.390Z,3.7
2022-09-21T14:38:34.160Z,3.6
2022-09-21T14:43:59.694Z,3.3
2022-09-21T14:49:21.569Z,2
2022-09-21T14:54:42.852Z,0.5
2022-09-21T15:00:04.755Z,0.4
2022-09-21T15:05:29.294Z,0.3
2022-09-21T15:11:00.550Z,0.4
2022-09-21T15:16:22.853Z,0.3
2022-09-21T15:21:45.946Z,0.3
2022-09-21T15:27:09.737Z,0.3
2022-09-21T15:32:32.466Z,0.3
2022-09-21T15:37:54.945Z,0.3
2022-09-21T15:43:17.442Z,0.3
2022-09-21T15:48:42.802Z,0.2
2022-09-21T15:54:12.774Z,0.2
2022-09-21T15:59:35.126Z,0.2
2022-09-21T16:04:57.477Z,0.2
2022-09-21T16:10:22.932Z,0.2
2022-09-21T16:15:45.534Z,0.2
2022-09-21T16:21:08.135Z,0.2
2022-09-21T16:26:30.874Z,0.2
2022-09-21T16:31:53.785Z,0.2
2022-09-21T16:37:16.736Z,0.2
2022-09-21T16:42:39.030Z,0.2
2022-09-21T16:48:01.357Z,0.1
2022-09-21T16:53:23.761Z,0.1
2022-09-21T16:58:46.361Z,0.1
2022-09-21T17:04:08.912Z,0.1
2022-09-21T17:09:31.971Z,0.1
2022-09-21T17:14:54.555Z,0.1
2022-09-21T17:20:16.955Z,0.1
2022-09-21T17:25:39.755Z,0.1
2022-09-21T17:36:27.040Z,0
2022-09-21T17:41:49.449Z,0
2022-09-21T17:47:14.485Z,0
2022-09-21T17:52:37.630Z,0
2022-09-21T18:01:09.020Z,0
2022-09-21T18:06:32.375Z,0
2022-09-21T18:11:55.028Z,0
2022-09-21T18:17:17.387Z,0
2022-09-21T18:33:16.987Z,0
2022-09-21T18:38:44.095Z,0
2022-09-21T18:44:07.040Z,0
2022-09-21T18:55:09.363Z,0
2022-09-21T19:00:31.846Z,0
2022-09-21T19:11:37.619Z,0
2022-09-21T19:22:35.373Z,0
2022-09-21T19:27:58.141Z,0
2022-09-21T19:33:45.843Z,0
2022-09-21T19:39:14.552Z,0
2022-09-21T19:55:49.373Z,0
2022-09-21T20:01:12.126Z,0
2022-09-21T20:11:38.702Z,0
2022-09-21T20:17:01.371Z,0
2022-09-21T20:22:24.348Z,0
2022-09-21T20:27:58.219Z,0
2022-09-21T20:33:20.608Z,0
2022-09-21T20:38:43.590Z,0
2022-09-21T20:44:12.033Z,0
2022-09-21T20:49:50.719Z,0
2022-09-21T20:55:13.754Z,0
2022-09-21T21:00:36.537Z,0
2022-09-21T21:05:59.279Z,0
2022-09-21T21:11:22.260Z,0
2022-09-21T21:16:45.148Z,0
2022-09-21T21:27:35.209Z,0
2022-09-21T21:32:57.857Z,0
2022-09-21T21:38:29.498Z,0
2022-09-21T21:43:52.824Z,0
2022-09-21T21:49:15.873Z,0
2022-09-21T21:54:38.606Z,0
2022-09-21T22:05:26.183Z,0
2022-09-21T22:10:48.674Z,0
2022-09-21T22:16:11.701Z,0
2022-09-21T22:21:34.633Z,0
2022-09-21T22:26:56.931Z,0
2022-09-21T22:32:19.418Z,0
2022-09-21T22:37:41.870Z,0
2022-09-21T22:48:35.748Z,0
2022-09-21T22:53:58.496Z,0
2022-09-21T22:59:20.986Z,0
2022-09-21T23:04:43.561Z,0
2022-09-21T23:10:06.141Z,0
2022-09-21T23:15:28.724Z,0
2022-09-21T23:20:51.186Z,0
2022-09-21T23:26:13.506Z,0
2022-09-21T23:31:37.564Z,0
2022-09-21T23:37:08.515Z,0
2022-09-21T23:47:53.982Z,0
2022-09-21T23:53:17.443Z,0
2022-09-21T23:58:42.865Z,0
